Nearby METAR Reports

 

KHFD - Hartford/Brainar, Connecticut, USA
Distance from station: ESE 5mi, 8km
Updated: Fri, 15-Oct-2021 2:53pm EDT
Overcast
Overcast
 Wind from SSE
Wind: SSE 5 mph , 7 km/h
Temperature: 77°F , 25°C
Dew Point: 61°F , 16°C
Humidity: 57%
Barometer: 29.88 inHg , 1011.9 hPa
Clouds: Overcast
Visibility: 10 miles , 16 km
Cloud details: Few Clouds 5000 ft
Overcast 7000 ft
2021/10/15 18:53 KHFD 151853Z 16004KT 10SM FEW050 OVC070 25/16 A2988 RMK AO2 SLP116 T02500156
KBDL - Windsor Locks, Connecticut, USA
Distance from station: NNE 12mi, 20km
Updated: Fri, 15-Oct-2021 2:51pm EDT
Mostly cloudy
Mostly cloudy
 Wind from S
Wind: S 8 mph , 13 km/h
Temperature: 77°F , 25°C
Dew Point: 61°F , 16°C
Humidity: 57%
Barometer: 29.88 inHg , 1011.9 hPa
Clouds: Mostly cloudy
Visibility: 10 miles , 16 km
Cloud details: Few Clouds 4000 ft
Few Clouds 6000 ft
Mostly cloudy 9000 ft
2021/10/15 18:51 KBDL 151851Z 19007KT 10SM FEW040 FEW060 BKN090 25/16 A2988 RMK AO2 SLP117 T02500161
 
KMMK - Meriden, Connecticut, USA
Distance from station: SSW 18mi, 28km
Updated: Fri, 15-Oct-2021 2:53pm EDT
Clear
Clear
 Wind from SSW
Wind: SSW 6 mph , 9 km/h
Temperature: 77°F , 25°C
Dew Point: 57°F , 14°C
Humidity: 51%
Barometer: 29.89 inHg , 1012.2 hPa
Clouds: Clear
Visibility: 10 miles , 16 km
2021/10/15 18:53 KMMK 151853Z AUTO 20005KT 10SM CLR 25/14 A2989 RMK AO2 SLP120 T02500144 $
KBAF - Westfield, Massachusetts, USA
Distance from station: N 28mi, 45km
Updated: Fri, 15-Oct-2021 2:53pm EDT
Mostly cloudy
Mostly cloudy
 Wind from ESE
Wind: ESE 5 mph , 7 km/h
Temperature: 73°F , 23°C
Dew Point: 63°F , 17°C
Humidity: 69%
Barometer: 29.88 inHg , 1011.9 hPa
Clouds: Mostly cloudy
Visibility: 10 miles , 16 km
Cloud details: Partly cloudy 8000 ft
Mostly cloudy 11000 ft
2021/10/15 18:53 KBAF 151853Z 11004KT 10SM SCT080 BKN110 23/17 A2988 RMK AO2 SLP116 T02280172
 
KIJD - Willimantic, Connecticut, USA
Distance from station: E 29mi, 46km
Updated: Fri, 15-Oct-2021 2:52pm EDT
Mostly cloudy
Mostly cloudy
 Wind from S
Wind: S 7 mph , 11 km/h
Temperature: 77°F , 25°C
Dew Point: 59°F , 15°C
Humidity: 54%
Barometer: 29.89 inHg , 1012.2 hPa
Clouds: Mostly cloudy
Visibility: 10 miles , 16 km
Cloud details: Partly cloudy 4200 ft
Mostly cloudy 5500 ft
Mostly cloudy 7500 ft
2021/10/15 18:52 KIJD 151852Z AUTO 19006KT 10SM SCT042 BKN055 BKN075 25/15 A2989 RMK AO2 SLP120 T02500150
KOXC - Oxford/Waterbury, Connecticut, USA
Distance from station: SW 29mi, 46km
Updated: Fri, 15-Oct-2021 2:51pm EDT
Few Clouds
Few Clouds
 Wind from SSW
Wind: SSW 7 mph , 11 km/h
Temperature: 75°F , 24°C
Dew Point: 63°F , 17°C
Humidity: 65%
Barometer: 29.91 inHg , 1012.9 hPa
Clouds: Few Clouds
Visibility: 9 miles , 14 km
Cloud details: Few Clouds 3500 ft
2021/10/15 18:51 KOXC 151851Z 20006KT 9SM FEW035 24/17 A2991 RMK AO2 SLP137 T02440167
 
KSNC - Chester, Connecticut, USA
Distance from station: SSE 29mi, 47km
Updated: Fri, 15-Oct-2021 3:35pm EDT
Few Clouds
Few Clouds
 Wind from varies
Wind: varies 6 mph , 9 km/h
Temperature: 77°F , 25°C
Dew Point: 63°F , 17°C
Humidity: 61%
Barometer: 29.91 inHg , 1012.9 hPa
Clouds: Few Clouds
Visibility: 10 miles , 16 km
Cloud details: Few Clouds 4800 ft
2021/10/15 19:35 KSNC 151935Z AUTO VRB05KT 10SM FEW048 25/17 A2991 RMK AO2
KCEF - Chicopee/Westove, Massachusetts, USA
Distance from station: NNE 32mi, 52km
Updated: Fri, 15-Oct-2021 2:56pm EDT
Mostly cloudy
Mostly cloudy
 Wind from ENE
Wind: ENE 5 mph , 7 km/h
Temperature: 70°F , 21°C
Dew Point: 64°F , 18°C
Humidity: 83%
Barometer: 29.87 inHg , 1011.5 hPa
Clouds: Mostly cloudy
Visibility: 10 miles , 16 km
Cloud details: Few Clouds 2500 ft
Mostly cloudy 5000 ft
Mostly cloudy 10000 ft
2021/10/15 18:56 KCEF 151856Z 06004KT 10SM FEW025 BKN050 BKN100 21/18 A2987 RMK AO2A SLP120 P0002 T02070179
 
KHVN - New Haven/Tweed, Connecticut, USA
Distance from station: S 35mi, 56km
Updated: Fri, 15-Oct-2021 2:53pm EDT
Clear
Clear
 Wind from SSW
Wind: SSW 6 mph , 9 km/h
Temperature: 75°F , 24°C
Dew Point: 64°F , 18°C
Humidity: 69%
Barometer: 29.90 inHg , 1012.5 hPa
Clouds: Clear
Visibility: 10 miles , 16 km
2021/10/15 18:53 KHVN 151853Z 20005KT 10SM CLR 24/18 A2990 RMK AO2 SLP123 T02440183 $
KBDR - Bridgeport, Connecticut, USA
Distance from station: SSW 46mi, 74km
Updated: Fri, 15-Oct-2021 2:52pm EDT
Clear
Clear
 Wind from SSW
Wind: SSW 5 mph , 7 km/h
Temperature: 75°F , 24°C
Dew Point: 61°F , 16°C
Humidity: 61%
Barometer: 29.89 inHg , 1012.2 hPa
Clouds: Clear
Visibility: 10 miles , 16 km
2021/10/15 18:52 KBDR 151852Z 20004KT 10SM CLR 24/16 A2989 RMK AO2 SLP121 T02440156 $
 
KGON - Groton/New Londo, Connecticut, USA
Distance from station: SE 46mi, 75km
Updated: Fri, 15-Oct-2021 2:56pm EDT
Clear
Clear
 Wind from S
Wind: S 12 mph , 19 km/h
Temperature: 72°F , 22°C
Dew Point: 63°F , 17°C
Humidity: 73%
Barometer: 29.90 inHg , 1012.5 hPa
Clouds: Clear
Visibility: 10 miles , 16 km
2021/10/15 18:56 KGON 151856Z 18010KT 10SM CLR 22/17 A2990 RMK AO2 SLP126 T02170167 $
KDXR - Danbury, Connecticut, USA
Distance from station: SW 47mi, 76km
Updated: Fri, 15-Oct-2021 2:53pm EDT
Partly cloudy
Partly cloudy
 Wind from SW
Wind: SW 6 mph , 9 km/h
Temperature: 79°F , 26°C
Dew Point: 61°F , 16°C
Humidity: 54%
Barometer: 29.90 inHg , 1012.5 hPa
Clouds: Partly cloudy
Visibility: 10 miles , 16 km
Cloud details: Partly cloudy 3500 ft
2021/10/15 18:53 KDXR 151853Z 23005KT 10SM SCT035 26/16 A2990 RMK AO2 SLP122 T02610161 $
 
KPSF - Pittsfield, Massachusetts, USA
Distance from station: NNW 54mi, 87km
Updated: Fri, 15-Oct-2021 3:38pm EDT
Overcast
Overcast
 Wind from calm
Wind: Calm
Temperature: 72°F , 22°C
Dew Point: 63°F , 17°C
Humidity: 73%
Barometer: 29.89 inHg , 1012.2 hPa
Clouds: Overcast
Visibility: 10 miles , 16 km
Cloud details: Partly cloudy 2900 ft
Overcast 3700 ft
2021/10/15 19:38 KPSF 151938Z AUTO 00000KT 10SM SCT029 OVC037 22/17 A2989 RMK AO2 T02220172
KWST - Westerly, Rhode Island, USA
Distance from station: ESE 56mi, 91km
Updated: Fri, 15-Oct-2021 2:53pm EDT
Mostly cloudy
Mostly cloudy
 Wind from SSE
Wind: SSE 9 mph , 15 km/h
Temperature: 68°F , 20°C
Dew Point: 64°F , 18°C
Humidity: 88%
Barometer: 29.92 inHg , 1013.2 hPa
Clouds: Mostly cloudy
Visibility: 10 miles , 16 km
Cloud details: Mostly cloudy 700 ft
2021/10/15 18:53 KWST 151853Z AUTO 15008KT 10SM BKN007 20/18 A2992 RMK AO2 SLP132 T02000178
 
KORH - Worcester, Massachusetts, USA
Distance from station: NE 57mi, 92km
Updated: Fri, 15-Oct-2021 2:54pm EDT
Overcast
Overcast
 Wind from SW
Wind: SW 7 mph , 11 km/h
Temperature: 73°F , 23°C
Dew Point: 57°F , 14°C
Humidity: 57%
Barometer: 29.91 inHg , 1012.9 hPa
Clouds: Overcast
Visibility: 10 miles , 16 km
Cloud details: Mostly cloudy 4800 ft
Overcast 8000 ft
2021/10/15 18:54 KORH 151854Z 23006KT 10SM BKN048 OVC080 23/14 A2991 RMK AO2 SLP124 T02330144
KPOU - Poughkeepsie, New York, USA
Distance from station: W 60mi, 96km
Updated: Fri, 15-Oct-2021 2:53pm EDT
Clear
Clear
 Wind from varies
Wind: varies 5 mph , 7 km/h
Temperature: 79°F , 26°C
Dew Point: 63°F , 17°C
Humidity: 58%
Barometer: 29.86 inHg , 1011.2 hPa
Clouds: Clear
Visibility: 10 miles , 16 km
2021/10/15 18:53 KPOU 151853Z VRB04KT 10SM CLR 26/17 A2986 RMK AO2 SLP107 T02560172
 
KORE - Orange, Massachusetts, USA
Distance from station: NNE 60mi, 97km
Updated: Fri, 15-Oct-2021 2:52pm EDT
Overcast
Overcast
 Wind from S
Wind: S 9 mph , 15 km/h
Temperature: 73°F , 23°C
Dew Point: 61°F , 16°C
Humidity: 65%
Barometer: 29.90 inHg , 1012.5 hPa
Clouds: Overcast
Visibility: 10 miles , 16 km
Cloud details: Few Clouds 4400 ft
Overcast 6500 ft
2021/10/15 18:52 KORE 151852Z AUTO 18008KT 10SM FEW044 OVC065 23/16 A2990 RMK AO2 SLP123 T02280156
KHTO - East Hampton, New York, USA
Distance from station: SSE 62mi, 99km
Updated: Fri, 15-Oct-2021 3:35pm EDT
Clear
Clear
 Wind from S
Wind: S 8 mph , 13 km/h
Temperature: 70°F , 21°C
Dew Point: 64°F , 18°C
Humidity: 83%
Barometer: 29.91 inHg , 1012.9 hPa
Clouds: Clear
Visibility: 10 miles , 16 km
2021/10/15 19:35 KHTO 151935Z AUTO 19007KT 10SM CLR 21/18 A2991 RMK AO2 T02100175
 
KFOK - Westhampton Beac, New York, USA
Distance from station: S 63mi, 102km
Updated: Fri, 15-Oct-2021 2:53pm EDT
Few Clouds
Few Clouds
 Wind from SSE
Wind: SSE 9 mph , 15 km/h
Temperature: 72°F , 22°C
Dew Point: 64°F , 18°C
Humidity: 78%
Barometer: 29.92 inHg , 1013.2 hPa
Clouds: Few Clouds
Visibility: 10 miles , 16 km
Cloud details: Few Clouds 4500 ft
2021/10/15 18:53 KFOK 151853Z 16008KT 10SM FEW045 22/18 A2992 RMK AO2 SLP132 T02220178 $
KMTP - Montauk, New York, USA
Distance from station: SE 64mi, 104km
Updated: Fri, 15-Oct-2021 2:54pm EDT

 Wind from varies
Wind: varies 5 mph , 7 km/h
Temperature: 72°F , 22°C
Dew Point: 64°F , 18°C
Humidity: 78%
Barometer: 29.93 inHg , 1013.5 hPa
2021/10/15 18:54 KMTP 151854Z AUTO VRB04KT 22/18 A2993 RMK AO1 SLP134 T02220178